• Join FlightAware (Why Join?)
  • Login
  • US Flag 
12:15AM EDT


 

Airport Tracker/Info


-or-


 

Live Flight TrackerFlight Track Log ✈ DAL3784 ✈ 22-Apr-2013 ✈ KDTW - KATW

Flight Track Log - Related Links

Times and Time Zones

All times are in EDT time to prevent confusion due to time zone crossing. See the DAL3784 flight status page for this flight to view local times or setup timezone preferences in your user account.

Time Position Orientation Groundspeed Altitude Reporting Facility
EDT Latitude Longitude Course Direction KTS MPH feet Rate Location/Type
03:43PM 42.2036 -83.3583 North 154 177 1,400  Level Cleveland Center
03:44PM 42.1692 -83.4072 226° Southwest 203 234 3,600 2,220 Climbing Cleveland Center
03:45PM 42.1314 -83.4922 239° Southwest 260 299 6,200 2,340 Climbing Cleveland Center
03:46PM 42.1669 -83.5753 300° West 282 325 8,600 2,220 Climbing Cleveland Center
03:47PM 42.7060 -83.3500 North  Level FlightAware Approximate
03:47PM 42.2256 -83.6425 320° Northwest 284 327 11,100  Level Cleveland Center
03:48PM 42.8072 -83.3500 North  Level FlightAware Approximate
03:48PM 42.3175 -83.6328 North 281 323 12,700  Level Cleveland Center
03:49PM 42.4167 -83.5869 19° North 323 372 14,400 1,620 Climbing Cleveland Center
03:50PM 42.5200 -83.5411 18° North 349 402 16,000 1,740 Climbing Cleveland Center
03:51PM 42.6233 -83.4953 18° North 376 433 17,900 1,680 Climbing Cleveland Center
03:52PM 42.7267 -83.4492 18° North 386 444 19,400 1,200 Climbing Cleveland Center
03:53PM 42.8300 -83.4031 18° North 386 444 20,400 960 Climbing Cleveland Center
03:54PM 42.9414 -83.3683 13° North 386 444 21,400 780 Climbing Cleveland Center
03:55PM 43.0581 -83.3678 360° North 396 456 22,000 300 Climbing Cleveland Center
03:56PM 43.1650 -83.4297 337° Northwest 400 460 22,000  Level Cleveland Center
03:57PM 43.2717 -83.4972 335° Northwest 405 466 22,000  Level Cleveland Center
03:59PM 43.4253 -83.5986 334° Northwest 428 493 22,000  Level Minneapolis Center
04:00PM 43.5194 -83.7344 314° West 426 490 22,000  Level Minneapolis Center
04:01PM 43.5581 -83.8850 290° West 420 483 22,000  Level Minneapolis Center
04:02PM 43.5969 -84.0361 290° West 420 483 22,000  Level Minneapolis Center
04:03PM 43.6356 -84.1881 289° West 421 484 22,000  Level Minneapolis Center
04:04PM 43.6744 -84.3397 290° West 421 484 22,000  Level Minneapolis Center
04:05PM 43.7111 -84.4936 288° West 422 486 22,000  Level Minneapolis Center
04:06PM 43.7500 -84.6472 289° West 423 487 22,000  Level Minneapolis Center
04:07PM 43.7950 -84.8303 289° West 423 487 22,000  Level Minneapolis Center
04:08PM 43.8336 -84.9850 289° West 424 488 22,000  Level Minneapolis Center
04:09PM 43.8714 -85.1403 289° West 426 490 22,000  Level Minneapolis Center
04:10PM 43.9083 -85.2936 289° West 426 490 22,000  Level Minneapolis Center
04:11PM 43.9514 -85.4739 288° West 422 486 22,000  Level Minneapolis Center
04:12PM 43.9833 -85.6150 288° West 405 466 22,000  Level Minneapolis Center
04:13PM 44.0189 -85.7617 289° West 402 463 22,000  Level Minneapolis Center
04:14PM 44.0606 -85.9408 288° West 406 467 22,000  Level Minneapolis Center
04:15PM 44.0944 -86.0886 288° West 406 467 22,000 -180 Level Minneapolis Center
04:16PM 44.1303 -86.2467 288° West 407 468 21,700 -840 Descending Minneapolis Center
04:17PM 44.1644 -86.3947 288° West 403 464 20,400 -1,320 Descending Minneapolis Center
04:18PM 44.1975 -86.5383 288° West 393 452 19,100 -1,320 Descending Minneapolis Center
04:19PM 44.2289 -86.6781 287° West 380 437 17,800 -1,200 Descending Minneapolis Center
04:20PM 44.2592 -86.8164 287° West 375 432 16,700 -1,200 Descending Minneapolis Center
04:21PM 44.2889 -86.9522 287° West 368 423 15,400 -1,320 Descending Minneapolis Center
04:22PM 44.3197 -87.0850 288° West 362 417 14,100 -720 Descending Minneapolis Center
04:23PM 44.3492 -87.2217 287° West 357 411 14,000 -60 Descending Minneapolis Center
04:24PM 44.3819 -87.3714 287° West 347 399 14,000 -240 Level Minneapolis Center
04:25PM 44.3889 -87.4961 274° West 327 376 13,600 -1,080 Descending Minneapolis Center
04:27PM 44.3756 -87.6069 260° West 293 337 11,900 -1,560 Descending Minneapolis Center
04:28PM 44.3628 -87.7075 260° West 270 311 10,500 -1,440 Descending Minneapolis Center
04:29PM 44.3511 -87.8061 261° West 261 300 9,000 -1,260 Descending Minneapolis Center
04:30PM 44.3389 -87.9089 261° West 267 307 8,000 -1,080 Descending Minneapolis Center
04:31PM 44.3261 -88.0075 260° West 262 302 6,900 -1,200 Descending Minneapolis Center
04:32PM 44.3122 -88.1150 260° West 249 287 5,600 -1,140 Descending Minneapolis Center
04:33PM 44.3139 -88.2031 272° West 238 274 4,600 -840 Descending Minneapolis Center
04:34PM 44.3253 -88.2881 281° West 228 262 3,900 -720 Descending Minneapolis Center